sensor_id;sensor_type;location;lat;lon;timestamp;P1;durP1;ratioP1;P2;durP2;ratioP2
49980;SDS011;35871;51.594;7.138;2023-12-07T06:50:54;21.30;;;13.00;;
49980;SDS011;35871;51.594;7.138;2023-12-07T08:15:19;15.50;;;11.65;;
49980;SDS011;35871;51.594;7.138;2023-12-07T08:20:21;16.95;;;12.50;;
49980;SDS011;35871;51.594;7.138;2023-12-07T08:30:33;15.07;;;10.93;;
49980;SDS011;35871;51.594;7.138;2023-12-07T08:35:43;13.45;;;10.43;;
49980;SDS011;35871;51.594;7.138;2023-12-07T08:40:44;16.85;;;10.48;;
49980;SDS011;35871;51.594;7.138;2023-12-07T08:50:48;13.20;;;9.52;;
49980;SDS011;35871;51.594;7.138;2023-12-07T08:55:49;12.60;;;9.32;;
49980;SDS011;35871;51.594;7.138;2023-12-07T09:06:17;11.65;;;8.50;;
49980;SDS011;35871;51.594;7.138;2023-12-07T09:16:20;14.45;;;11.10;;
49980;SDS011;35871;51.594;7.138;2023-12-07T09:21:43;11.45;;;8.55;;
49980;SDS011;35871;51.594;7.138;2023-12-07T09:32:32;23.40;;;15.88;;
49980;SDS011;35871;51.594;7.138;2023-12-07T09:43:47;16.13;;;11.63;;
49980;SDS011;35871;51.594;7.138;2023-12-07T09:49:07;23.67;;;16.30;;
49980;SDS011;35871;51.594;7.138;2023-12-07T10:28:00;20.02;;;14.35;;
49980;SDS011;35871;51.594;7.138;2023-12-07T10:33:40;12.30;;;8.95;;
49980;SDS011;35871;51.594;7.138;2023-12-07T10:44:22;11.88;;;8.05;;
49980;SDS011;35871;51.594;7.138;2023-12-07T10:49:54;15.57;;;12.43;;
49980;SDS011;35871;51.594;7.138;2023-12-07T11:12:09;12.85;;;9.45;;
49980;SDS011;35871;51.594;7.138;2023-12-07T11:18:05;7.25;;;5.50;;
49980;SDS011;35871;51.594;7.138;2023-12-07T11:23:29;11.10;;;7.85;;
49980;SDS011;35871;51.594;7.138;2023-12-07T11:28:37;12.85;;;9.38;;
49980;SDS011;35871;51.594;7.138;2023-12-07T11:50:55;8.73;;;6.18;;
49980;SDS011;35871;51.594;7.138;2023-12-07T11:55:57;11.02;;;7.95;;
49980;SDS011;35871;51.594;7.138;2023-12-07T12:00:58;10.93;;;6.63;;
49980;SDS011;35871;51.594;7.138;2023-12-07T12:06:03;11.60;;;7.78;;
49980;SDS011;35871;51.594;7.138;2023-12-07T12:11:45;7.57;;;5.40;;
49980;SDS011;35871;51.594;7.138;2023-12-07T12:17:06;6.10;;;3.97;;
49980;SDS011;35871;51.594;7.138;2023-12-07T12:27:47;7.03;;;5.00;;
49980;SDS011;35871;51.594;7.138;2023-12-07T12:39:07;9.13;;;6.75;;
49980;SDS011;35871;51.594;7.138;2023-12-07T12:44:09;8.23;;;6.10;;
49980;SDS011;35871;51.594;7.138;2023-12-07T12:49:14;7.25;;;4.57;;
49980;SDS011;35871;51.594;7.138;2023-12-07T12:54:32;11.98;;;5.72;;
49980;SDS011;35871;51.594;7.138;2023-12-07T12:59:52;11.13;;;7.90;;
49980;SDS011;35871;51.594;7.138;2023-12-07T13:04:58;8.60;;;5.32;;
49980;SDS011;35871;51.594;7.138;2023-12-07T13:09:59;6.13;;;3.88;;
49980;SDS011;35871;51.594;7.138;2023-12-07T13:15:02;7.50;;;4.90;;
49980;SDS011;35871;51.594;7.138;2023-12-07T13:20:42;8.90;;;6.30;;
49980;SDS011;35871;51.594;7.138;2023-12-07T13:25:52;15.68;;;8.38;;
49980;SDS011;35871;51.594;7.138;2023-12-07T13:31:32;5.20;;;3.55;;
49980;SDS011;35871;51.594;7.138;2023-12-07T13:36:43;7.15;;;4.75;;
49980;SDS011;35871;51.594;7.138;2023-12-07T13:41:47;5.13;;;3.75;;
49980;SDS011;35871;51.594;7.138;2023-12-07T13:52:29;10.00;;;7.60;;
49980;SDS011;35871;51.594;7.138;2023-12-07T13:57:30;11.52;;;7.22;;
49980;SDS011;35871;51.594;7.138;2023-12-07T14:02:37;9.25;;;7.18;;
49980;SDS011;35871;51.594;7.138;2023-12-07T14:07:38;8.35;;;5.97;;
49980;SDS011;35871;51.594;7.138;2023-12-07T14:12:39;9.60;;;6.50;;
49980;SDS011;35871;51.594;7.138;2023-12-07T14:17:40;4.68;;;3.35;;
49980;SDS011;35871;51.594;7.138;2023-12-07T14:22:41;10.68;;;5.75;;
49980;SDS011;35871;51.594;7.138;2023-12-07T14:27:43;8.73;;;6.10;;
49980;SDS011;35871;51.594;7.138;2023-12-07T14:32:46;7.70;;;3.28;;
49980;SDS011;35871;51.594;7.138;2023-12-07T14:37:51;5.20;;;4.20;;
49980;SDS011;35871;51.594;7.138;2023-12-07T14:42:52;5.82;;;4.60;;
49980;SDS011;35871;51.594;7.138;2023-12-07T14:47:54;6.57;;;4.32;;
49980;SDS011;35871;51.594;7.138;2023-12-07T15:03:45;8.15;;;5.28;;
49980;SDS011;35871;51.594;7.138;2023-12-07T15:08:52;7.50;;;4.53;;
49980;SDS011;35871;51.594;7.138;2023-12-07T15:13:53;7.15;;;4.88;;
49980;SDS011;35871;51.594;7.138;2023-12-07T15:18:57;5.95;;;3.72;;
49980;SDS011;35871;51.594;7.138;2023-12-07T15:23:58;7.75;;;5.75;;
49980;SDS011;35871;51.594;7.138;2023-12-07T15:29:08;6.43;;;4.07;;
49980;SDS011;35871;51.594;7.138;2023-12-07T15:34:09;4.05;;;3.20;;
49980;SDS011;35871;51.594;7.138;2023-12-07T15:39:13;5.53;;;3.78;;
49980;SDS011;35871;51.594;7.138;2023-12-07T15:44:20;4.93;;;3.33;;
49980;SDS011;35871;51.594;7.138;2023-12-07T15:49:21;5.72;;;3.97;;
49980;SDS011;35871;51.594;7.138;2023-12-07T15:59:24;9.13;;;6.18;;
49980;SDS011;35871;51.594;7.138;2023-12-07T16:04:39;4.50;;;3.85;;
49980;SDS011;35871;51.594;7.138;2023-12-07T16:09:46;4.57;;;3.53;;
49980;SDS011;35871;51.594;7.138;2023-12-07T16:14:54;8.02;;;5.68;;
49980;SDS011;35871;51.594;7.138;2023-12-07T16:20:03;5.63;;;4.05;;
49980;SDS011;35871;51.594;7.138;2023-12-07T16:25:11;4.80;;;3.22;;
49980;SDS011;35871;51.594;7.138;2023-12-07T16:30:12;8.18;;;4.05;;
49980;SDS011;35871;51.594;7.138;2023-12-07T16:35:15;7.95;;;4.85;;
49980;SDS011;35871;51.594;7.138;2023-12-07T16:40:16;9.10;;;6.07;;
49980;SDS011;35871;51.594;7.138;2023-12-07T16:45:20;11.23;;;8.30;;
49980;SDS011;35871;51.594;7.138;2023-12-07T16:50:48;6.32;;;3.50;;
49980;SDS011;35871;51.594;7.138;2023-12-07T16:56:07;6.63;;;3.90;;
49980;SDS011;35871;51.594;7.138;2023-12-07T17:01:13;5.50;;;3.60;;
49980;SDS011;35871;51.594;7.138;2023-12-07T17:06:16;5.00;;;3.50;;
49980;SDS011;35871;51.594;7.138;2023-12-07T17:11:18;9.55;;;6.53;;
49980;SDS011;35871;51.594;7.138;2023-12-07T17:16:20;9.68;;;5.40;;
49980;SDS011;35871;51.594;7.138;2023-12-07T17:21:22;4.35;;;2.75;;
49980;SDS011;35871;51.594;7.138;2023-12-07T17:26:23;8.75;;;5.88;;
49980;SDS011;35871;51.594;7.138;2023-12-07T18:34:16;10.02;;;8.82;;
49980;SDS011;35871;51.594;7.138;2023-12-07T18:39:17;7.07;;;5.43;;
49980;SDS011;35871;51.594;7.138;2023-12-07T18:49:19;10.18;;;6.82;;
49980;SDS011;35871;51.594;7.138;2023-12-07T18:59:21;6.55;;;5.25;;
49980;SDS011;35871;51.594;7.138;2023-12-07T19:09:23;6.70;;;4.82;;
49980;SDS011;35871;51.594;7.138;2023-12-07T19:14:24;12.43;;;10.48;;
49980;SDS011;35871;51.594;7.138;2023-12-07T19:19:36;6.47;;;5.70;;
